Time;durP1;ratioP1;P1;durP2;ratioP2;P2;SDS_P1;SDS_P2;PMS_P1;PMS_P2;Temp;Humidity;BMP_temperature;BMP_pressure;BME280_temperature;BME280_humidity;BME280_pressure;Samples;Min_cycle;Max_cycle;Signal;HPM_P1;HPM_P2
2022/12/11 00:01:12;;;;;;;9.75;8.63;;;7.00;99.90;;;;;;4963620;28;20389;-77
2022/12/11 00:03:38;;;;;;;11.43;10.13;;;7.00;99.90;;;;;;4960503;28;20406;-77
2022/12/11 00:06:06;;;;;;;17.27;13.40;;;7.00;99.90;;;;;;4965162;28;20101;-77
2022/12/11 00:08:32;;;;;;;19.33;14.68;;;7.00;99.90;;;;;;4960324;28;20027;-76
2022/12/11 00:10:58;;;;;;;19.88;13.95;;;7.00;99.90;;;;;;4964578;28;20366;-77
2022/12/11 00:13:24;;;;;;;21.08;14.73;;;7.00;99.90;;;;;;4963519;28;20508;-76
2022/12/11 00:15:50;;;;;;;27.90;17.27;;;7.00;99.90;;;;;;4960484;28;20026;-77
2022/12/11 00:18:16;;;;;;;26.52;18.67;;;7.00;99.90;;;;;;4964481;28;20025;-77
2022/12/11 00:20:42;;;;;;;29.15;18.88;;;7.00;99.90;;;;;;4962082;28;20019;-76
2022/12/11 00:23:09;;;;;;;29.85;20.15;;;7.10;99.90;;;;;;4966037;28;20126;-77
2022/12/11 00:25:40;;;;;;;25.58;17.20;;;7.10;99.90;;;;;;4962562;28;20023;-77
2022/12/11 00:28:05;;;;;;;23.17;16.60;;;7.00;99.90;;;;;;4962971;28;20038;-77
2022/12/11 00:30:31;;;;;;;23.25;16.67;;;6.90;99.90;;;;;;4962244;28;20027;-77
2022/12/11 00:32:57;;;;;;;25.98;17.52;;;7.00;99.90;;;;;;4963448;28;20102;-76
2022/12/11 00:35:22;;;;;;;17.98;13.25;;;7.00;99.90;;;;;;4961378;28;20470;-77
2022/12/11 00:37:48;;;;;;;15.30;12.05;;;6.90;99.90;;;;;;4961795;28;20176;-76
2022/12/11 00:40:14;;;;;;;13.73;10.35;;;6.90;99.90;;;;;;4963158;28;20023;-76
2022/12/11 00:42:39;;;;;;;12.48;10.48;;;6.90;99.90;;;;;;4963706;28;20062;-77
2022/12/11 00:45:06;;;;;;;12.48;9.25;;;6.90;99.90;;;;;;4960982;28;20043;-77
2022/12/11 00:47:31;;;;;;;10.85;8.70;;;6.90;99.90;;;;;;4963674;28;20099;-77
2022/12/11 00:49:57;;;;;;;10.75;8.95;;;6.90;99.90;;;;;;4960632;28;20035;-77
2022/12/11 00:52:23;;;;;;;10.82;9.35;;;6.90;99.90;;;;;;4967732;28;20023;-76
2022/12/11 00:54:49;;;;;;;10.63;9.13;;;7.00;99.90;;;;;;4964572;28;20019;-76
2022/12/11 00:57:14;;;;;;;14.80;11.30;;;7.10;99.90;;;;;;4967272;28;20077;-76
2022/12/11 00:59:40;;;;;;;36.65;21.00;;;7.10;99.90;;;;;;4963708;28;20528;-76
2022/12/11 01:02:06;;;;;;;26.83;17.83;;;7.10;99.90;;;;;;4963499;28;20027;-77
2022/12/11 01:04:35;;;;;;;22.98;15.13;;;7.10;99.90;;;;;;4968453;28;20035;-77
2022/12/11 01:07:01;;;;;;;21.48;14.77;;;7.10;99.90;;;;;;4964841;28;20428;-76
2022/12/11 01:12:10;;;;;;;15.50;11.90;;;7.10;99.90;;;;;;4966335;28;20127;-76
2022/12/11 01:14:36;;;;;;;12.63;10.23;;;7.10;99.90;;;;;;4963016;28;20529;-77
2022/12/11 01:17:02;;;;;;;10.07;8.70;;;7.10;99.90;;;;;;4965722;28;20081;-76
2022/12/11 01:19:28;;;;;;;10.45;8.85;;;7.20;99.90;;;;;;4964425;28;20038;-77
2022/12/11 01:21:54;;;;;;;11.05;8.93;;;7.20;99.90;;;;;;4967266;28;20058;-77
2022/12/11 01:24:19;;;;;;;10.57;8.73;;;7.20;99.90;;;;;;4967054;28;20121;-77
2022/12/11 01:26:45;;;;;;;11.60;10.00;;;7.20;99.90;;;;;;4964587;28;20030;-77
2022/12/11 01:29:11;;;;;;;11.57;8.88;;;7.20;99.90;;;;;;4963048;28;20031;-77
2022/12/11 01:31:37;;;;;;;7.18;6.35;;;7.20;99.90;;;;;;4966996;28;20027;-77
2022/12/11 01:34:03;;;;;;;6.90;6.13;;;7.20;99.90;;;;;;4971468;28;20022;-77
2022/12/11 01:36:28;;;;;;;7.40;5.55;;;7.20;99.90;;;;;;4974599;28;20050;-77
2022/12/11 01:38:55;;;;;;;5.25;4.85;;;7.10;99.90;;;;;;4963326;28;20027;-76
2022/12/11 01:41:21;;;;;;;6.10;5.60;;;7.10;99.90;;;;;;4965959;28;20099;-77
2022/12/11 01:44:05;;;;;;;5.43;4.97;;;7.00;99.90;;;;;;4963812;28;20072;-76
2022/12/11 01:46:33;;;;;;;5.07;4.60;;;7.00;99.90;;;;;;4970987;28;20038;-76
2022/12/11 01:49:02;;;;;;;4.80;4.40;;;7.00;99.90;;;;;;4963948;28;20031;-76
2022/12/11 01:51:30;;;;;;;5.50;5.00;;;7.00;99.90;;;;;;4965034;28;20555;-76
2022/12/11 01:54:05;;;;;;;5.20;4.80;;;7.00;99.90;;;;;;4965265;28;20034;-77
2022/12/11 01:56:34;;;;;;;5.70;5.20;;;7.10;99.90;;;;;;4963830;28;20409;-77
2022/12/11 01:59:06;;;;;;;6.85;6.15;;;7.10;99.90;;;;;;4965194;28;20035;-77
2022/12/11 02:01:34;;;;;;;5.88;5.38;;;7.10;99.90;;;;;;4963090;28;20042;-77
2022/12/11 02:04:01;;;;;;;6.40;5.80;;;7.10;99.90;;;;;;4965365;28;20034;-76
2022/12/11 02:06:47;;;;;;;9.90;7.95;;;7.10;99.90;;;;;;4963077;28;20038;-77
2022/12/11 02:09:17;;;;;;;11.30;8.85;;;7.10;99.90;;;;;;4970628;28;20035;-77
2022/12/11 02:12:20;;;;;;;14.38;10.27;;;7.10;99.90;;;;;;4963635;28;20030;-77
2022/12/11 02:14:57;;;;;;;19.27;12.38;;;7.10;99.90;;;;;;4972686;28;20050;-77
2022/12/11 02:17:34;;;;;;;18.05;13.10;;;7.10;99.90;;;;;;4962367;28;20117;-77
2022/12/11 02:20:04;;;;;;;15.18;11.40;;;7.10;99.90;;;;;;4962448;28;20388;-77
2022/12/11 02:22:36;;;;;;;13.35;10.25;;;7.10;99.90;;;;;;4963776;28;20031;-77
2022/12/11 02:25:40;;;;;;;18.00;11.55;;;7.10;99.90;;;;;;4963387;28;20054;-76
2022/12/11 02:28:36;;;;;;;9.02;5.88;;;7.10;99.90;;;;;;4973328;28;20027;-76
2022/12/11 02:31:26;;;;;;;4.05;3.70;;;7.00;99.90;;;;;;4941016;28;20229;-76
2022/12/11 02:34:16;;;;;;;4.15;3.85;;;6.90;99.90;;;;;;4965982;28;20405;-76
2022/12/11 02:36:47;;;;;;;3.97;3.67;;;6.80;99.90;;;;;;4964408;28;20038;-75
2022/12/11 02:39:14;;;;;;;4.90;4.07;;;6.90;99.90;;;;;;4963582;28;20405;-76
2022/12/11 02:41:46;;;;;;;5.15;4.63;;;6.90;99.90;;;;;;4963597;28;20441;-76
2022/12/11 02:44:14;;;;;;;6.88;5.03;;;7.00;99.90;;;;;;4964248;28;20106;-76
2022/12/11 02:46:42;;;;;;;6.88;5.57;;;7.00;99.90;;;;;;4969190;28;20535;-76
2022/12/11 02:49:10;;;;;;;7.80;6.10;;;7.00;99.90;;;;;;4965565;28;20028;-75
2022/12/11 02:51:39;;;;;;;9.15;6.65;;;7.00;99.90;;;;;;4962529;28;20039;-76
2022/12/11 02:54:11;;;;;;;5.70;5.20;;;7.00;99.90;;;;;;4964969;28;20181;-75
2022/12/11 02:56:49;;;;;;;4.85;4.45;;;6.90;99.90;;;;;;4963272;28;20102;-76
2022/12/11 02:59:22;;;;;;;4.45;4.10;;;6.90;99.90;;;;;;4967807;28;20023;-76
2022/12/11 03:01:49;;;;;;;4.20;3.90;;;6.80;99.90;;;;;;4963674;28;20027;-75
2022/12/11 03:04:15;;;;;;;5.05;3.40;;;6.80;99.90;;;;;;4963974;28;20024;-76
2022/12/11 03:06:47;;;;;;;4.60;3.00;;;6.80;99.90;;;;;;4961340;28;20114;-75
2022/12/11 03:09:12;;;;;;;3.63;3.33;;;6.80;99.90;;;;;;4964353;28;20035;-75
2022/12/11 03:11:38;;;;;;;3.22;3.03;;;6.80;99.90;;;;;;4964528;28;20081;-76
2022/12/11 03:14:05;;;;;;;3.47;3.17;;;6.70;99.90;;;;;;4963743;28;20043;-75
2022/12/11 03:16:57;;;;;;;2.65;2.45;;;6.70;99.90;;;;;;4964441;28;20019;-75
2022/12/11 03:19:40;;;;;;;2.22;2.13;;;6.60;99.90;;;;;;4935658;28;20485;-75
2022/12/11 03:22:20;;;;;;;2.10;1.90;;;6.50;99.90;;;;;;4961945;28;20081;-75
2022/12/11 03:24:49;;;;;;;2.45;1.63;;;6.40;99.90;;;;;;4966509;28;20035;-75
2022/12/11 03:27:26;;;;;;;1.75;1.65;;;6.30;99.90;;;;;;4965446;28;20374;-75
2022/12/11 03:30:03;;;;;;;1.30;1.30;;;6.30;99.90;;;;;;4964305;28;20027;-76
2022/12/11 03:32:38;;;;;;;1.35;1.30;;;6.30;99.90;;;;;;4961296;28;20034;-76
2022/12/11 03:35:35;;;;;;;1.40;1.30;;;6.30;99.90;;;;;;4962373;28;20031;-75
2022/12/11 03:38:06;;;;;;;1.27;1.17;;;6.30;99.90;;;;;;4956263;28;20174;-75
2022/12/11 03:40:34;;;;;;;5.00;1.50;;;6.20;99.90;;;;;;4961359;28;20027;-75
2022/12/11 03:43:01;;;;;;;2.67;1.52;;;6.30;99.90;;;;;;4965392;28;20396;-75
2022/12/11 03:45:29;;;;;;;2.65;1.30;;;6.30;99.90;;;;;;4965491;28;20102;-75
2022/12/11 03:47:56;;;;;;;1.55;1.45;;;6.30;99.90;;;;;;4963783;28;20035;-75
2022/12/11 03:50:25;;;;;;;1.52;1.40;;;6.30;99.90;;;;;;4962678;28;20036;-75
2022/12/11 03:52:52;;;;;;;1.20;1.20;;;6.40;99.90;;;;;;4964609;28;20122;-75
2022/12/11 03:55:21;;;;;;;1.05;1.05;;;6.40;99.90;;;;;;4961657;28;20018;-74
2022/12/11 03:57:47;;;;;;;1.20;1.20;;;6.40;99.90;;;;;;4962984;28;20030;-75
2022/12/11 04:00:16;;;;;;;1.42;1.38;;;6.30;99.90;;;;;;4963687;28;20026;-74
2022/12/11 04:02:43;;;;;;;1.40;1.30;;;6.20;99.90;;;;;;4962478;28;20058;-75
2022/12/11 04:05:10;;;;;;;1.20;1.20;;;6.30;99.90;;;;;;4964599;28;20031;-75
2022/12/11 04:07:36;;;;;;;1.60;1.50;;;6.30;99.90;;;;;;4962498;28;20031;-74
2022/12/11 04:10:04;;;;;;;2.05;1.58;;;6.20;99.90;;;;;;4964991;28;20058;-74
2022/12/11 04:12:29;;;;;;;1.50;1.50;;;6.20;99.90;;;;;;4964463;28;20437;-74
2022/12/11 04:15:01;;;;;;;1.30;1.30;;;6.20;99.90;;;;;;4961774;28;20330;-74
2022/12/11 04:26:09;;;;;;;1.40;1.30;;;6.10;99.90;;;;;;4964034;28;20058;-74
2022/12/11 04:28:35;;;;;;;1.48;1.38;;;6.10;99.90;;;;;;4961365;28;20019;-75
2022/12/11 04:31:02;;;;;;;1.27;1.20;;;6.10;99.90;;;;;;4964451;28;20027;-74
2022/12/11 04:33:28;;;;;;;1.08;1.08;;;6.20;99.90;;;;;;4961637;28;20393;-74
2022/12/11 04:35:56;;;;;;;0.90;0.90;;;6.10;99.90;;;;;;4964314;28;20022;-74
2022/12/11 04:38:22;;;;;;;1.23;1.23;;;6.00;99.90;;;;;;4961753;28;20035;-75
2022/12/11 04:40:47;;;;;;;1.25;0.90;;;6.00;99.90;;;;;;4964048;28;20499;-75
2022/12/11 04:43:13;;;;;;;0.82;0.82;;;5.90;99.90;;;;;;4965481;28;20160;-75
2022/12/11 04:45:39;;;;;;;1.02;0.93;;;5.90;99.90;;;;;;4963494;28;20035;-74
2022/12/11 04:48:05;;;;;;;1.17;1.17;;;5.90;99.90;;;;;;4960803;28;20042;-75
2022/12/11 04:50:30;;;;;;;2.05;1.00;;;5.90;99.90;;;;;;4962802;28;20396;-75
2022/12/11 04:52:56;;;;;;;1.38;0.90;;;5.80;99.90;;;;;;4964119;28;20042;-74
2022/12/11 04:55:22;;;;;;;0.82;0.80;;;5.80;99.90;;;;;;4961155;28;20531;-75
2022/12/11 04:57:48;;;;;;;0.98;0.93;;;5.70;99.90;;;;;;4961031;28;20058;-75
2022/12/11 05:00:14;;;;;;;0.77;0.77;;;5.70;99.90;;;;;;4960566;28;20059;-75
2022/12/11 05:02:41;;;;;;;0.98;0.98;;;5.60;99.90;;;;;;4963762;28;20027;-75
2022/12/11 05:05:08;;;;;;;1.00;1.00;;;5.50;99.90;;;;;;4960339;28;20040;-75
2022/12/11 05:07:34;;;;;;;1.42;0.80;;;5.50;99.90;;;;;;4964083;28;20041;-76
2022/12/11 05:10:00;;;;;;;0.80;0.80;;;5.40;99.90;;;;;;4964831;28;20035;-76
2022/12/11 05:12:26;;;;;;;0.82;0.82;;;5.40;99.90;;;;;;4961114;28;20039;-75
2022/12/11 05:14:52;;;;;;;1.00;1.00;;;5.30;99.90;;;;;;4964433;28;20082;-76
2022/12/11 05:17:19;;;;;;;0.80;0.80;;;5.30;99.90;;;;;;4959581;28;20049;-76
2022/12/11 05:19:47;;;;;;;1.83;0.82;;;5.20;99.90;;;;;;4960996;28;20533;-76
2022/12/11 05:22:13;;;;;;;0.50;0.50;;;5.10;99.90;;;;;;4964130;28;20232;-76
2022/12/11 05:24:39;;;;;;;0.77;0.63;;;5.00;99.90;;;;;;4964185;28;20034;-76
2022/12/11 05:27:04;;;;;;;0.60;0.60;;;5.00;99.90;;;;;;4961174;28;20027;-75
2022/12/11 05:29:30;;;;;;;0.90;0.90;;;5.00;99.90;;;;;;4962677;28;20026;-75
2022/12/11 05:31:56;;;;;;;0.50;0.50;;;4.90;99.90;;;;;;4961174;28;20564;-75
2022/12/11 05:34:21;;;;;;;0.50;0.50;;;4.80;99.90;;;;;;4962114;28;20031;-76
2022/12/11 05:36:47;;;;;;;0.70;0.60;;;4.70;99.90;;;;;;4964283;28;20528;-75
2022/12/11 05:39:13;;;;;;;0.65;0.65;;;4.70;99.90;;;;;;4962073;28;20106;-76
2022/12/11 05:41:39;;;;;;;0.60;0.60;;;4.70;99.90;;;;;;4968232;28;20409;-76
2022/12/11 05:44:04;;;;;;;0.45;0.45;;;4.70;99.90;;;;;;4969673;28;20035;-76
2022/12/11 05:46:30;;;;;;;0.57;0.57;;;4.70;99.90;;;;;;4966452;28;20030;-75
2022/12/11 05:48:58;;;;;;;0.38;0.38;;;4.70;99.90;;;;;;4965315;28;20036;-76
2022/12/11 05:51:25;;;;;;;0.60;0.60;;;4.70;99.90;;;;;;4965005;28;20471;-75
2022/12/11 05:53:51;;;;;;;0.47;0.47;;;4.70;99.90;;;;;;4963866;28;20024;-76
2022/12/11 05:56:26;;;;;;;0.68;0.68;;;4.70;99.90;;;;;;4965411;28;20481;-76
2022/12/11 05:58:53;;;;;;;0.63;0.50;;;4.80;99.90;;;;;;4964623;28;20106;-76
2022/12/11 06:01:25;;;;;;;0.55;0.55;;;4.70;99.90;;;;;;4965627;28;20030;-76
2022/12/11 06:03:52;;;;;;;0.40;0.40;;;4.70;99.90;;;;;;4965188;28;20582;-76
2022/12/11 06:06:18;;;;;;;0.50;0.50;;;4.70;99.90;;;;;;4963627;28;20079;-76
2022/12/11 06:08:44;;;;;;;0.40;0.40;;;4.60;99.90;;;;;;4965994;28;20027;-76
2022/12/11 06:11:15;;;;;;;0.40;0.40;;;4.70;99.90;;;;;;4965224;28;20045;-75
2022/12/11 06:13:41;;;;;;;0.63;0.63;;;4.60;99.90;;;;;;4964784;28;20054;-76
2022/12/11 06:16:07;;;;;;;0.35;0.35;;;4.60;99.90;;;;;;4963899;28;20027;-75
2022/12/11 06:18:38;;;;;;;0.40;0.40;;;4.60;99.90;;;;;;4963650;28;20451;-76
2022/12/11 06:21:33;;;;;;;0.68;0.40;;;4.50;99.90;;;;;;4966089;28;20024;-76
2022/12/11 06:24:01;;;;;;;0.57;0.40;;;4.50;99.90;;;;;;4949160;28;21443;-76
2022/12/11 06:26:27;;;;;;;0.30;0.30;;;4.60;99.90;;;;;;4964828;28;20450;-76
2022/12/11 06:28:53;;;;;;;0.47;0.47;;;4.50;99.90;;;;;;4965589;28;20027;-76
2022/12/11 06:31:19;;;;;;;0.50;0.50;;;4.60;99.90;;;;;;4964763;28;20027;-76
2022/12/11 06:33:45;;;;;;;0.50;0.50;;;4.60;99.90;;;;;;4965089;28;20040;-76
2022/12/11 06:36:14;;;;;;;0.60;0.60;;;4.50;99.90;;;;;;4968844;28;20026;-76
2022/12/11 06:38:40;;;;;;;0.47;0.47;;;4.50;99.90;;;;;;4975223;28;20023;-76
2022/12/11 06:41:07;;;;;;;0.70;0.70;;;4.40;99.90;;;;;;4975372;28;20027;-76
2022/12/11 06:43:34;;;;;;;0.65;0.65;;;4.40;99.90;;;;;;4973410;28;20026;-75
2022/12/11 06:46:08;;;;;;;0.63;0.63;;;4.40;99.90;;;;;;4975930;28;20029;-76
2022/12/11 06:48:34;;;;;;;0.60;0.60;;;4.40;99.90;;;;;;4991134;28;20620;-76
2022/12/11 06:51:04;;;;;;;0.70;0.70;;;4.30;99.90;;;;;;4974750;28;20026;-75
2022/12/11 06:53:30;;;;;;;0.77;0.77;;;4.40;99.90;;;;;;4975494;28;20022;-76
2022/12/11 06:56:01;;;;;;;0.70;0.70;;;4.40;99.90;;;;;;4967895;28;20427;-76
2022/12/11 06:58:27;;;;;;;0.60;0.60;;;4.40;99.90;;;;;;4975117;28;20058;-76
2022/12/11 07:00:53;;;;;;;0.60;0.60;;;4.40;99.90;;;;;;4972488;28;20499;-76
2022/12/11 07:03:18;;;;;;;1.00;1.00;;;4.40;99.90;;;;;;4974182;28;20026;-76
2022/12/11 07:05:44;;;;;;;0.90;0.90;;;4.40;99.90;;;;;;4974060;28;20031;-76
2022/12/11 07:08:10;;;;;;;0.70;0.70;;;4.40;99.90;;;;;;4972870;28;20031;-76
2022/12/11 07:10:35;;;;;;;0.60;0.60;;;4.40;99.90;;;;;;4974193;28;20019;-76
2022/12/11 07:13:01;;;;;;;0.77;0.77;;;4.40;99.90;;;;;;4974775;28;20497;-76
2022/12/11 07:15:27;;;;;;;0.55;0.55;;;4.40;99.90;;;;;;4975164;28;20023;-75
2022/12/11 07:17:54;;;;;;;0.63;0.63;;;4.40;99.90;;;;;;4971657;28;20109;-76
2022/12/11 07:20:19;;;;;;;0.60;0.60;;;4.40;99.90;;;;;;4973594;28;20030;-76
2022/12/11 07:22:45;;;;;;;0.75;0.75;;;4.40;99.90;;;;;;4973566;28;20118;-76
2022/12/11 07:25:11;;;;;;;0.88;0.88;;;4.50;99.90;;;;;;4972050;28;20030;-76
2022/12/11 07:27:37;;;;;;;1.00;1.00;;;4.40;99.90;;;;;;4973769;28;20031;-76
2022/12/11 07:30:03;;;;;;;0.82;0.82;;;4.50;99.90;;;;;;4975248;28;20094;-75
2022/12/11 07:32:28;;;;;;;0.85;0.80;;;4.50;99.90;;;;;;4974118;28;20037;-76
2022/12/11 07:34:54;;;;;;;0.82;0.75;;;4.50;99.90;;;;;;4967192;28;20385;-76
2022/12/11 07:37:20;;;;;;;1.10;1.10;;;4.50;99.90;;;;;;4966600;28;20077;-76
2022/12/11 07:39:47;;;;;;;0.90;0.90;;;4.60;99.90;;;;;;4973322;28;20023;-76
2022/12/11 07:42:13;;;;;;;1.10;1.10;;;4.60;99.90;;;;;;4973686;28;20034;-76
2022/12/11 07:44:39;;;;;;;1.30;1.20;;;4.60;99.90;;;;;;4973615;28;20023;-76
2022/12/11 07:47:04;;;;;;;0.73;0.73;;;4.60;99.90;;;;;;4978351;28;20027;-76
2022/12/11 07:49:30;;;;;;;1.35;1.23;;;4.60;99.90;;;;;;4974914;28;20026;-76
2022/12/11 07:51:56;;;;;;;1.25;1.15;;;4.70;99.90;;;;;;4974135;28;20031;-76
2022/12/11 07:54:22;;;;;;;1.10;1.10;;;4.70;99.90;;;;;;4973975;28;20029;-76
2022/12/11 07:56:47;;;;;;;1.13;1.13;;;4.70;99.90;;;;;;4974619;28;20015;-76
2022/12/11 07:59:14;;;;;;;1.45;1.05;;;4.70;99.90;;;;;;4974505;28;20027;-76
2022/12/11 08:01:41;;;;;;;1.65;1.08;;;4.80;99.90;;;;;;4974385;28;20377;-76
2022/12/11 08:04:08;;;;;;;1.30;1.30;;;4.80;99.90;;;;;;4974689;28;20027;-77
2022/12/11 08:06:37;;;;;;;1.05;1.05;;;4.80;99.90;;;;;;4974633;28;20034;-76
2022/12/11 08:09:06;;;;;;;1.40;1.30;;;4.90;99.90;;;;;;4974476;28;20030;-76
2022/12/11 08:11:33;;;;;;;1.00;1.00;;;4.90;99.90;;;;;;4974390;28;20392;-76
2022/12/11 08:13:59;;;;;;;2.42;1.52;;;4.90;99.90;;;;;;4957291;28;20494;-76
2022/12/11 08:16:25;;;;;;;1.30;1.25;;;4.90;99.90;;;;;;4966354;28;20422;-76
2022/12/11 08:18:51;;;;;;;1.40;1.30;;;4.90;99.90;;;;;;4965566;28;20028;-77
2022/12/11 08:21:19;;;;;;;1.25;1.20;;;4.90;99.90;;;;;;4954951;29;20082;-76
2022/12/11 08:23:45;;;;;;;2.20;1.20;;;4.90;99.90;;;;;;4965709;28;20110;-76
2022/12/11 08:26:20;;;;;;;3.88;1.40;;;4.90;99.90;;;;;;4957894;28;20463;-76
2022/12/11 08:28:46;;;;;;;1.10;1.10;;;4.90;99.90;;;;;;4960043;28;20125;-76
2022/12/11 08:31:14;;;;;;;1.52;1.42;;;4.80;99.90;;;;;;4972633;28;20146;-76
2022/12/11 08:33:42;;;;;;;1.73;1.30;;;4.80;99.90;;;;;;4972844;28;20035;-76
2022/12/11 08:36:11;;;;;;;3.92;1.50;;;4.90;99.90;;;;;;4974176;28;20049;-77
2022/12/11 08:38:37;;;;;;;1.65;1.55;;;4.90;99.90;;;;;;4972809;28;20034;-76
2022/12/11 08:41:15;;;;;;;1.50;1.40;;;4.80;99.90;;;;;;4972831;28;20031;-76
2022/12/11 08:43:41;;;;;;;1.65;1.55;;;4.80;99.90;;;;;;4972905;28;20026;-76
2022/12/11 08:46:08;;;;;;;1.08;1.08;;;4.80;99.90;;;;;;4972736;28;20065;-76
2022/12/11 08:48:35;;;;;;;1.38;1.38;;;4.90;99.90;;;;;;4963699;28;20034;-77
2022/12/11 08:51:03;;;;;;;3.67;1.40;;;4.90;99.90;;;;;;4954502;29;20389;-76
2022/12/11 08:53:29;;;;;;;1.33;1.33;;;4.90;99.90;;;;;;4962561;28;20028;-76
2022/12/11 08:56:11;;;;;;;1.45;1.35;;;4.90;99.90;;;;;;4953196;29;20098;-76
2022/12/11 08:58:37;;;;;;;1.50;1.40;;;4.90;99.90;;;;;;4953412;29;20114;-76
2022/12/11 09:01:14;;;;;;;1.60;1.50;;;4.90;99.90;;;;;;4953374;29;20098;-76
2022/12/11 09:03:40;;;;;;;1.33;1.23;;;4.90;99.90;;;;;;4962655;28;20031;-76
2022/12/11 09:06:12;;;;;;;1.17;1.15;;;4.90;99.90;;;;;;4972684;28;20046;-76
2022/12/11 09:08:38;;;;;;;2.70;1.30;;;4.90;99.90;;;;;;4973871;28;20027;-77
2022/12/11 09:11:16;;;;;;;2.00;1.90;;;4.90;99.90;;;;;;4972490;28;20127;-76
2022/12/11 09:13:42;;;;;;;2.13;1.92;;;4.90;99.90;;;;;;4972940;28;20055;-76
2022/12/11 09:16:17;;;;;;;1.67;1.58;;;4.90;99.90;;;;;;4957833;28;20050;-76
2022/12/11 09:18:46;;;;;;;1.83;1.73;;;4.90;99.90;;;;;;4972499;28;20034;-76
2022/12/11 09:21:14;;;;;;;1.70;1.60;;;4.90;99.90;;;;;;4976182;28;20029;-76
2022/12/11 09:23:40;;;;;;;2.92;2.70;;;4.90;99.90;;;;;;4965723;28;20032;-76
2022/12/11 09:26:09;;;;;;;5.97;2.58;;;4.90;99.90;;;;;;4976287;28;20031;-76
2022/12/11 09:28:36;;;;;;;2.50;2.30;;;4.90;99.90;;;;;;4971940;28;20560;-76
2022/12/11 09:31:11;;;;;;;3.10;2.90;;;4.90;99.90;;;;;;4956662;29;20424;-76
2022/12/11 09:33:37;;;;;;;3.83;3.53;;;4.90;99.90;;;;;;4970920;28;20027;-76
2022/12/11 09:36:04;;;;;;;2.78;2.58;;;5.00;99.90;;;;;;4967280;28;20027;-76
2022/12/11 09:38:30;;;;;;;2.47;2.28;;;5.00;99.90;;;;;;4956631;29;20086;-76
2022/12/11 09:40:56;;;;;;;2.50;2.30;;;5.00;99.90;;;;;;4957111;28;20042;-76
2022/12/11 09:43:53;;;;;;;2.10;2.00;;;5.00;99.90;;;;;;4975856;28;20126;-77
2022/12/11 09:46:19;;;;;;;2.03;1.92;;;5.00;99.90;;;;;;4975461;28;20584;-76
2022/12/11 09:48:48;;;;;;;2.10;2.00;;;4.90;99.90;;;;;;4956577;29;20505;-76
2022/12/11 09:51:27;;;;;;;1.80;1.70;;;4.90;99.90;;;;;;4964415;28;20027;-75
2022/12/11 09:53:55;;;;;;;2.67;2.20;;;5.00;99.90;;;;;;4975460;28;20034;-76
2022/12/11 09:56:43;;;;;;;2.33;2.22;;;5.00;99.90;;;;;;4975399;28;20532;-76
2022/12/11 09:59:42;;;;;;;2.58;2.38;;;5.00;99.90;;;;;;4963317;28;20038;-75
2022/12/11 10:02:31;;;;;;;2.83;2.63;;;4.90;99.90;;;;;;4964311;28;20027;-76
2022/12/11 10:05:25;;;;;;;3.53;3.30;;;5.00;99.90;;;;;;4956302;29;20412;-76
2022/12/11 10:08:21;;;;;;;3.03;2.70;;;4.90;99.90;;;;;;4956232;29;20042;-75
2022/12/11 10:11:17;;;;;;;3.70;2.95;;;4.90;99.90;;;;;;4934322;28;20035;-75
2022/12/11 10:13:54;;;;;;;2.35;2.25;;;4.90;99.90;;;;;;4945761;28;20081;-75
2022/12/11 10:16:47;;;;;;;4.40;4.10;;;4.90;99.90;;;;;;4975181;28;20085;-75
2022/12/11 10:19:24;;;;;;;2.83;2.65;;;5.00;99.90;;;;;;4968646;28;20086;-76
2022/12/11 10:21:51;;;;;;;3.28;2.97;;;5.00;99.90;;;;;;4957163;29;20023;-76
2022/12/11 10:24:43;;;;;;;3.08;2.78;;;5.00;99.90;;;;;;4957885;28;20039;-76
2022/12/11 10:27:22;;;;;;;3.25;2.70;;;5.00;99.90;;;;;;4955983;29;20019;-76
2022/12/11 10:30:04;;;;;;;2.90;2.70;;;5.00;99.90;;;;;;4955634;29;20031;-75
2022/12/11 10:32:53;;;;;;;2.50;2.40;;;4.90;99.90;;;;;;4968232;28;20028;-76
2022/12/11 10:35:28;;;;;;;2.67;2.47;;;4.90;99.90;;;;;;4967811;28;20493;-76
2022/12/11 10:38:22;;;;;;;2.97;2.67;;;4.90;99.90;;;;;;4976288;28;20487;-75
2022/12/11 10:40:55;;;;;;;3.40;3.10;;;4.80;99.90;;;;;;4976186;28;20030;-76
2022/12/11 10:43:42;;;;;;;2.70;2.60;;;4.80;99.90;;;;;;4974919;28;20401;-75
2022/12/11 10:46:24;;;;;;;2.70;2.60;;;4.70;99.90;;;;;;4976154;28;20030;-75
2022/12/11 10:48:54;;;;;;;;;;;4.70;99.90;;;;;;4955981;29;20031;-76
2022/12/11 10:51:31;;;;;;;5.63;2.90;;;4.60;99.90;;;;;;4960629;28;19906;-75
2022/12/11 10:54:16;;;;;;;2.58;2.47;;;4.60;99.90;;;;;;4961611;28;20036;-75
2022/12/11 10:56:45;;;;;;;2.83;2.63;;;4.50;99.90;;;;;;4956544;28;20390;-75
2022/12/11 10:59:48;;;;;;;2.53;2.40;;;4.50;99.90;;;;;;4956602;28;20074;-75
2022/12/11 11:02:40;;;;;;;9.25;4.50;;;4.50;99.90;;;;;;4975667;28;20026;-75
2022/12/11 11:05:16;;;;;;;10.57;6.35;;;4.50;99.90;;;;;;4975783;28;20515;-75
2022/12/11 11:07:42;;;;;;;17.52;9.32;;;4.40;99.90;;;;;;4969151;28;20035;-75
2022/12/11 11:10:17;;;;;;;4.90;3.85;;;4.30;99.90;;;;;;4956073;29;20078;-75
2022/12/11 11:12:48;;;;;;;3.40;3.10;;;4.10;99.90;;;;;;4956064;29;20508;-75
2022/12/11 11:15:18;;;;;;;3.13;2.92;;;4.00;99.90;;;;;;4956139;29;20027;-75
2022/12/11 11:17:49;;;;;;;4.07;3.67;;;3.80;99.90;;;;;;4960315;28;20023;-75
2022/12/11 11:20:18;;;;;;;4.00;3.70;;;3.70;99.90;;;;;;4974940;28;20061;-75
2022/12/11 11:22:48;;;;;;;3.22;3.00;;;3.60;99.90;;;;;;4958012;28;20023;-75
2022/12/11 11:25:21;;;;;;;3.55;3.33;;;3.50;99.90;;;;;;4974137;28;20432;-75
2022/12/11 11:28:05;;;;;;;3.47;3.17;;;3.50;99.90;;;;;;4975242;28;20109;-75
2022/12/11 11:30:35;;;;;;;4.10;3.80;;;3.40;99.90;;;;;;4975279;28;20022;-75
2022/12/11 11:33:17;;;;;;;5.03;4.28;;;3.40;99.90;;;;;;4966541;28;20024;-75
2022/12/11 11:35:54;;;;;;;;;;;3.30;99.90;;;;;;4956255;28;20023;-75
2022/12/11 11:38:32;;;;;;;3.60;3.30;;;3.30;99.90;;;;;;4955624;28;19929;-76
2022/12/11 11:41:12;;;;;;;2.97;2.78;;;3.20;99.90;;;;;;4955569;29;20023;-76
2022/12/11 11:43:48;;;;;;;3.40;3.17;;;3.10;99.90;;;;;;4955721;29;20027;-76
2022/12/11 11:46:20;;;;;;;3.17;2.93;;;3.10;99.90;;;;;;4963461;28;20054;-75
2022/12/11 11:48:54;;;;;;;4.95;4.55;;;3.10;99.90;;;;;;4974967;28;20023;-76
2022/12/11 11:51:52;;;;;;;4.50;4.10;;;3.10;99.90;;;;;;4973441;28;20034;-75
2022/12/11 11:54:32;;;;;;;3.73;3.43;;;3.00;99.90;;;;;;4959736;28;20106;-76
2022/12/11 11:57:03;;;;;;;3.27;3.07;;;3.00;99.90;;;;;;4974879;28;20049;-76
2022/12/11 11:59:54;;;;;;;3.33;3.13;;;3.00;99.90;;;;;;4974420;28;20101;-75
2022/12/11 12:02:20;;;;;;;4.63;4.23;;;3.00;99.90;;;;;;4954333;29;20482;-75
2022/12/11 12:04:50;;;;;;;3.40;3.17;;;3.00;99.90;;;;;;4964557;28;20037;-75
2022/12/11 12:07:40;;;;;;;3.33;3.13;;;3.00;99.90;;;;;;4973245;28;20066;-75
2022/12/11 12:10:15;;;;;;;3.67;3.40;;;3.00;99.90;;;;;;4973070;28;20564;-75
2022/12/11 12:13:12;;;;;;;3.30;3.10;;;2.90;99.90;;;;;;4963391;28;20545;-76
2022/12/11 12:15:57;;;;;;;3.73;3.43;;;2.90;99.90;;;;;;4962088;28;20037;-75
2022/12/11 12:18:39;;;;;;;8.27;5.60;;;2.80;99.90;;;;;;4969073;28;20474;-75
2022/12/11 12:21:13;;;;;;;5.05;4.55;;;2.80;99.90;;;;;;4953916;29;20030;-76
2022/12/11 12:23:48;;;;;;;7.53;5.93;;;2.80;99.90;;;;;;4965344;28;20027;-76
2022/12/11 12:26:34;;;;;;;9.70;7.47;;;2.80;99.90;;;;;;4971639;28;20074;-76
2022/12/11 12:29:21;;;;;;;9.07;6.67;;;2.70;99.90;;;;;;4953814;29;20055;-75
2022/12/11 12:31:59;;;;;;;6.67;5.43;;;2.80;99.90;;;;;;4953485;29;20069;-75
2022/12/11 12:34:47;;;;;;;8.97;5.87;;;2.80;99.90;;;;;;4953634;29;20078;-76
2022/12/11 12:37:29;;;;;;;7.00;5.47;;;2.80;99.90;;;;;;4938478;29;20082;-75
2022/12/11 12:40:29;;;;;;;7.07;6.47;;;2.90;99.90;;;;;;4961802;28;20125;-75
2022/12/11 12:43:30;;;;;;;11.73;7.40;;;2.90;99.90;;;;;;4963187;28;20031;-76
2022/12/11 12:46:11;;;;;;;16.37;10.73;;;3.00;99.90;;;;;;4941101;29;20114;-75
2022/12/11 12:48:37;;;;;;;12.43;9.95;;;3.10;99.90;;;;;;4965116;28;20404;-75
2022/12/11 12:51:04;;;;;;;11.43;9.03;;;3.10;99.90;;;;;;4973970;28;20458;-75
2022/12/11 12:53:33;;;;;;;7.37;6.67;;;3.20;99.90;;;;;;4964364;28;20022;-75
2022/12/11 12:56:01;;;;;;;6.10;5.50;;;3.30;99.90;;;;;;4972727;28;20030;-75
2022/12/11 12:58:33;;;;;;;5.20;4.80;;;3.30;99.90;;;;;;4974104;28;20389;-75
2022/12/11 13:01:27;;;;;;;6.45;5.80;;;3.40;99.90;;;;;;4953221;29;20493;-75
2022/12/11 13:03:55;;;;;;;24.20;16.17;;;3.50;99.90;;;;;;4951414;28;20051;-75
2022/12/11 13:06:35;;;;;;;12.80;9.93;;;3.50;99.90;;;;;;4961105;28;20114;-75
2022/12/11 13:09:22;;;;;;;7.37;6.67;;;3.50;99.90;;;;;;4973893;28;20023;-75
2022/12/11 13:11:52;;;;;;;9.60;8.57;;;3.60;99.90;;;;;;4969725;28;20474;-75
2022/12/11 13:14:19;;;;;;;15.50;9.37;;;3.70;99.90;;;;;;4958360;28;20043;-75
2022/12/11 13:16:48;;;;;;;13.23;10.32;;;3.70;99.90;;;;;;4974006;28;20034;-75
2022/12/11 13:19:29;;;;;;;14.97;11.97;;;3.80;99.90;;;;;;4972741;28;20385;-74
2022/12/11 13:22:13;;;;;;;11.43;9.30;;;3.90;99.90;;;;;;4973740;28;20023;-75
2022/12/11 13:24:52;;;;;;;10.50;8.23;;;4.00;99.90;;;;;;4964010;28;20114;-75
2022/12/11 13:27:39;;;;;;;8.57;7.68;;;4.10;99.90;;;;;;4954355;29;20028;-75
2022/12/11 13:30:14;;;;;;;11.45;9.23;;;4.20;99.90;;;;;;4952890;29;20039;-75